createdAt,value
2022-10-24T00:00:29.601Z,8.07
2022-10-24T00:03:31.069Z,7.63
2022-10-24T00:06:32.441Z,8.50
2022-10-24T00:09:35.670Z,6.60
2022-10-24T00:12:37.077Z,8.40
2022-10-24T00:15:38.634Z,7.30
2022-10-24T00:18:40.983Z,5.83
2022-10-24T00:21:42.369Z,7.30
2022-10-24T00:24:43.838Z,8.70
2022-10-24T00:27:45.247Z,6.03
2022-10-24T00:30:51.589Z,8.90
2022-10-24T00:33:53.393Z,10.10
2022-10-24T00:36:54.803Z,10.07
2022-10-24T00:39:56.242Z,9.60
2022-10-24T00:42:57.616Z,7.07
2022-10-24T00:46:03.561Z,8.07
2022-10-24T00:49:04.990Z,9.03
2022-10-24T00:52:09.590Z,5.67
2022-10-24T00:55:12.254Z,8.07
2022-10-24T00:58:14.980Z,8.43
2022-10-24T01:01:16.756Z,9.47
2022-10-24T01:04:18.324Z,9.67
2022-10-24T01:07:22.437Z,8.77
2022-10-24T01:10:40.742Z,8.23
2022-10-24T01:14:06.985Z,9.63
2022-10-24T01:17:32.506Z,7.57
2022-10-24T01:20:49.184Z,10.90
2022-10-24T01:24:14.984Z,6.03
2022-10-24T01:27:31.710Z,5.87
2022-10-24T01:30:42.529Z,10.97
2022-10-24T01:33:51.917Z,6.70
2022-10-24T01:36:59.377Z,12.13
2022-10-24T01:40:08.675Z,9.93
2022-10-24T01:43:13.925Z,10.50
2022-10-24T01:46:20.931Z,6.93
2022-10-24T01:49:26.014Z,6.80
2022-10-24T01:52:30.641Z,11.47
2022-10-24T01:55:33.024Z,7.17
2022-10-24T01:58:34.462Z,10.80
2022-10-24T02:01:38.702Z,6.83
2022-10-24T02:04:59.667Z,9.70
2022-10-24T02:08:07.505Z,9.93
2022-10-24T02:11:09.867Z,9.13
2022-10-24T02:14:28.257Z,11.10
2022-10-24T02:17:29.675Z,9.77
2022-10-24T02:20:37.082Z,5.93
2022-10-24T02:23:50.824Z,7.70
2022-10-24T02:26:55.052Z,14.47
2022-10-24T02:30:05.350Z,6.00
2022-10-24T02:33:08.664Z,9.23
2022-10-24T02:36:14.901Z,6.70
2022-10-24T02:39:17.647Z,6.43
2022-10-24T02:42:20.520Z,5.30
2022-10-24T02:45:23.902Z,8.30
2022-10-24T02:48:31.775Z,12.27
2022-10-24T02:51:36.851Z,6.23
2022-10-24T02:54:38.276Z,5.67
2022-10-24T02:57:39.800Z,9.63
2022-10-24T03:00:41.366Z,13.73
2022-10-24T03:03:42.821Z,7.40
2022-10-24T03:06:44.520Z,9.67
2022-10-24T03:09:45.901Z,11.03
2022-10-24T03:12:47.639Z,9.93
2022-10-24T03:15:49.285Z,9.83
2022-10-24T03:18:50.785Z,12.00
2022-10-24T03:21:52.164Z,14.63
2022-10-24T03:24:55.334Z,11.40
2022-10-24T03:27:56.936Z,9.50
2022-10-24T03:30:58.338Z,9.50
2022-10-24T03:33:59.723Z,6.97
2022-10-24T03:37:01.303Z,8.80
2022-10-24T03:40:02.723Z,8.27
2022-10-24T03:43:04.444Z,5.53
2022-10-24T03:46:06.038Z,6.13
2022-10-24T03:49:07.438Z,8.37
2022-10-24T03:52:09.167Z,8.30
2022-10-24T03:55:11.602Z,12.37
2022-10-24T03:58:13.234Z,7.07
2022-10-24T04:01:17.870Z,9.67
2022-10-24T04:04:19.350Z,7.30
2022-10-24T04:07:20.732Z,7.87
2022-10-24T04:10:22.351Z,7.50
2022-10-24T04:13:23.851Z,9.07
2022-10-24T04:16:25.321Z,8.27
2022-10-24T04:19:26.829Z,9.23
2022-10-24T04:22:28.231Z,8.33
2022-10-24T04:25:30.057Z,7.00
2022-10-24T04:28:31.455Z,5.70
2022-10-24T04:31:32.931Z,4.93
2022-10-24T04:34:36.190Z,6.63
2022-10-24T04:37:37.608Z,8.70
2022-10-24T04:40:39.021Z,4.33
2022-10-24T04:43:40.496Z,6.13
2022-10-24T04:46:41.890Z,12.37
2022-10-24T04:49:43.297Z,8.87
2022-10-24T04:52:44.686Z,5.70
2022-10-24T04:55:46.117Z,10.47
2022-10-24T04:58:47.578Z,7.80
2022-10-24T05:01:49.535Z,7.53
2022-10-24T05:04:51.068Z,9.43
2022-10-24T05:07:52.477Z,7.10
2022-10-24T05:10:54.144Z,9.80
2022-10-24T05:13:55.582Z,12.33
2022-10-24T05:16:56.992Z,7.47
2022-10-24T05:19:58.383Z,10.27
2022-10-24T05:22:59.841Z,13.60
2022-10-24T05:26:01.269Z,13.10
2022-10-24T05:29:02.953Z,9.10
2022-10-24T05:32:04.801Z,7.37
2022-10-24T05:35:07.008Z,5.90
2022-10-24T05:38:08.878Z,8.50
2022-10-24T05:41:10.359Z,11.97
2022-10-24T05:44:13.110Z,11.90
2022-10-24T05:47:14.510Z,7.70
2022-10-24T05:50:16.113Z,10.47
2022-10-24T05:53:17.626Z,8.20
2022-10-24T05:56:19.037Z,6.90
2022-10-24T05:59:20.454Z,6.23
2022-10-24T06:02:22.128Z,9.80
2022-10-24T06:05:23.604Z,8.17
2022-10-24T06:08:25.010Z,7.07
2022-10-24T06:11:26.441Z,6.43
2022-10-24T06:14:28.059Z,6.43
2022-10-24T06:17:29.947Z,13.27
2022-10-24T06:20:31.349Z,14.60
2022-10-24T06:23:33.376Z,11.67
2022-10-24T06:26:34.854Z,11.10
2022-10-24T06:29:36.505Z,10.80
2022-10-24T06:32:42.108Z,10.03
2022-10-24T06:35:46.047Z,8.87
2022-10-24T06:38:47.470Z,11.50
2022-10-24T06:41:48.880Z,10.77
2022-10-24T06:44:51.665Z,11.13
2022-10-24T06:47:54.279Z,12.37
2022-10-24T06:50:56.127Z,11.50
2022-10-24T06:53:58.488Z,7.50
2022-10-24T06:57:00.048Z,8.93
2022-10-24T07:00:01.641Z,10.17
2022-10-24T07:03:03.066Z,7.33
2022-10-24T07:06:35.438Z,14.33
2022-10-24T07:09:36.816Z,12.20
2022-10-24T07:12:38.282Z,8.20
2022-10-24T07:15:39.722Z,9.10
2022-10-24T07:18:41.658Z,8.30
2022-10-24T07:21:43.167Z,9.73
2022-10-24T07:24:46.070Z,10.20
2022-10-24T07:27:47.606Z,11.63
2022-10-24T07:30:49.011Z,12.47
2022-10-24T07:33:51.394Z,18.87
2022-10-24T07:36:52.800Z,9.43
2022-10-24T07:39:54.191Z,15.07
2022-10-24T07:42:55.857Z,12.33
2022-10-24T07:45:57.354Z,15.67
2022-10-24T07:48:58.815Z,15.97
2022-10-24T07:52:00.223Z,14.97
2022-10-24T07:55:01.598Z,16.00
2022-10-24T07:58:03.012Z,19.43
2022-10-24T08:01:11.168Z,20.67
2022-10-24T08:04:13.693Z,14.07
2022-10-24T08:07:15.132Z,11.77
2022-10-24T08:10:16.931Z,13.50
2022-10-24T08:13:18.316Z,8.30
2022-10-24T08:16:21.900Z,9.10
2022-10-24T08:19:23.330Z,12.47
2022-10-24T08:22:24.814Z,11.87
2022-10-24T08:25:26.353Z,10.07
2022-10-24T08:28:27.834Z,11.13
2022-10-24T08:31:29.239Z,13.07
2022-10-24T08:34:30.628Z,11.57
2022-10-24T08:37:32.269Z,10.17
2022-10-24T08:40:33.795Z,10.23
2022-10-24T08:43:36.106Z,14.73
2022-10-24T08:46:56.329Z,10.73
2022-10-24T08:49:57.674Z,12.07
2022-10-24T08:53:05.987Z,9.47
2022-10-24T08:56:10.212Z,12.40
2022-10-24T08:59:13.035Z,8.43
2022-10-24T09:02:23.928Z,12.13
2022-10-24T09:05:34.684Z,6.17
2022-10-24T09:08:46.499Z,10.30
2022-10-24T09:11:55.692Z,11.13
2022-10-24T09:14:59.157Z,7.03
2022-10-24T09:18:00.633Z,5.53
2022-10-24T09:21:04.829Z,13.07
2022-10-24T09:24:07.353Z,12.13
2022-10-24T09:27:18.943Z,10.37
2022-10-24T09:30:28.701Z,10.03
2022-10-24T09:33:40.731Z,9.80
2022-10-24T09:36:42.474Z,9.43
2022-10-24T09:39:43.962Z,9.00
2022-10-24T09:42:54.110Z,7.87
2022-10-24T09:46:13.834Z,7.93
2022-10-24T09:49:22.470Z,6.77
2022-10-24T09:52:29.426Z,13.40
2022-10-24T09:55:31.878Z,5.40
2022-10-24T09:58:33.842Z,9.27
2022-10-24T10:01:35.376Z,7.70
2022-10-24T10:04:38.089Z,7.27
2022-10-24T10:07:42.450Z,6.30
2022-10-24T10:10:56.524Z,9.27
2022-10-24T10:14:01.282Z,6.27
2022-10-24T10:17:06.282Z,6.17
2022-10-24T10:20:25.075Z,7.83
2022-10-24T10:23:31.598Z,6.97
2022-10-24T10:26:46.247Z,6.77
2022-10-24T10:29:47.641Z,9.53
2022-10-24T10:32:56.419Z,8.13
2022-10-24T10:36:13.573Z,10.87
2022-10-24T10:39:45.030Z,8.43
2022-10-24T10:43:18.905Z,9.80
2022-10-24T10:46:44.384Z,5.07
2022-10-24T10:49:50.874Z,6.00
2022-10-24T10:52:58.886Z,4.43
2022-10-24T10:56:15.558Z,6.60
2022-10-24T10:59:38.456Z,8.47
2022-10-24T11:02:57.574Z,9.30
2022-10-24T11:06:04.965Z,5.77
2022-10-24T11:09:24.696Z,11.40
2022-10-24T11:12:30.296Z,10.47
2022-10-24T11:15:37.032Z,7.20
2022-10-24T11:18:42.094Z,7.33
2022-10-24T11:21:44.875Z,5.33
2022-10-24T11:24:53.120Z,7.97
2022-10-24T11:28:19.786Z,12.47
2022-10-24T11:31:37.610Z,9.47
2022-10-24T11:35:13.021Z,9.33
2022-10-24T11:38:19.473Z,5.43
2022-10-24T11:41:29.737Z,8.37
2022-10-24T11:44:43.171Z,7.90
2022-10-24T11:48:04.356Z,10.57
2022-10-24T11:51:28.061Z,8.67
2022-10-24T11:54:38.237Z,9.10
2022-10-24T11:57:43.199Z,8.10
2022-10-24T12:00:56.823Z,5.33
2022-10-24T12:04:23.304Z,11.50
2022-10-24T12:08:02.537Z,9.13
2022-10-24T12:11:16.526Z,12.80
2022-10-24T12:14:19.027Z,5.57
2022-10-24T12:18:00.199Z,11.70
2022-10-24T12:21:06.134Z,9.83
2022-10-24T12:24:21.360Z,11.93
2022-10-24T12:27:32.475Z,9.03
2022-10-24T12:30:36.289Z,8.03
2022-10-24T12:33:37.695Z,12.53
2022-10-24T12:37:14.099Z,10.60
2022-10-24T12:40:47.609Z,6.53
2022-10-24T12:43:49.593Z,9.80
2022-10-24T12:46:51.024Z,9.30
2022-10-24T12:49:52.442Z,10.57
2022-10-24T12:52:56.787Z,15.67
2022-10-24T12:55:58.161Z,7.63
2022-10-24T12:59:16.098Z,10.67
2022-10-24T13:02:20.612Z,12.27
2022-10-24T13:05:42.462Z,10.80
2022-10-24T13:09:06.807Z,10.93
2022-10-24T13:12:32.993Z,8.30
2022-10-24T13:15:43.998Z,9.23
2022-10-24T13:18:48.402Z,12.57
2022-10-24T13:21:52.763Z,10.53
2022-10-24T13:24:54.291Z,8.97
2022-10-24T13:28:24.572Z,5.40
2022-10-24T13:31:25.893Z,7.57
2022-10-24T13:34:54.669Z,12.47
2022-10-24T13:38:00.566Z,7.77
2022-10-24T13:41:04.531Z,10.87
2022-10-24T13:44:12.106Z,9.57
2022-10-24T13:47:28.894Z,11.07
2022-10-24T13:50:34.178Z,12.07
2022-10-24T13:53:46.036Z,12.37
2022-10-24T13:56:48.512Z,11.63
2022-10-24T13:59:59.057Z,5.87
2022-10-24T14:03:04.623Z,7.87
2022-10-24T14:06:08.363Z,7.93
2022-10-24T14:09:11.640Z,6.57
2022-10-24T14:12:22.666Z,7.83
2022-10-24T14:15:30.427Z,5.07
2022-10-24T14:18:32.875Z,8.20
2022-10-24T14:21:41.297Z,6.73
2022-10-24T14:24:48.437Z,8.90
2022-10-24T14:27:51.222Z,9.17
2022-10-24T14:31:04.388Z,6.50
2022-10-24T14:34:09.483Z,10.03
2022-10-24T14:37:16.829Z,9.43
2022-10-24T14:40:18.597Z,15.70
2022-10-24T14:43:24.720Z,7.37
2022-10-24T14:46:41.380Z,11.93
2022-10-24T14:49:42.778Z,11.07
2022-10-24T14:52:45.425Z,8.63
2022-10-24T14:55:55.780Z,6.17
2022-10-24T14:58:59.957Z,7.90
2022-10-24T15:02:43.147Z,8.03
2022-10-24T15:06:08.108Z,7.33
2022-10-24T15:09:12.222Z,5.90
2022-10-24T15:12:13.633Z,8.20
2022-10-24T15:15:22.534Z,9.33
2022-10-24T15:18:29.945Z,10.40
2022-10-24T15:21:37.367Z,7.73
2022-10-24T15:24:43.343Z,4.87
2022-10-24T15:27:46.212Z,5.93
2022-10-24T15:30:47.842Z,7.07
2022-10-24T15:33:49.289Z,6.40
2022-10-24T15:36:52.796Z,7.97
2022-10-24T15:39:55.488Z,4.00
2022-10-24T15:42:57.067Z,5.33
2022-10-24T15:45:58.465Z,6.73
2022-10-24T15:48:59.999Z,7.63
2022-10-24T15:52:06.282Z,7.17
2022-10-24T15:55:15.846Z,8.40
2022-10-24T15:58:18.415Z,7.20
2022-10-24T16:01:38.504Z,7.67
2022-10-24T16:04:42.360Z,6.27
2022-10-24T16:07:45.234Z,8.13
2022-10-24T16:10:51.827Z,7.63
2022-10-24T16:13:53.275Z,8.23
2022-10-24T16:16:57.659Z,10.47
2022-10-24T16:19:59.067Z,8.53
2022-10-24T16:23:00.677Z,7.40
2022-10-24T16:26:02.290Z,8.00
2022-10-24T16:29:04.289Z,4.73
2022-10-24T16:32:05.864Z,8.97
2022-10-24T16:35:08.535Z,7.00
2022-10-24T16:38:11.339Z,7.53
2022-10-24T16:41:26.128Z,7.67
2022-10-24T16:44:27.652Z,5.13
2022-10-24T16:47:29.543Z,8.87
2022-10-24T16:50:31.645Z,8.93
2022-10-24T16:53:34.602Z,5.70
2022-10-24T16:56:36.028Z,6.00
2022-10-24T16:59:37.563Z,9.73
2022-10-24T17:02:39.074Z,4.30
2022-10-24T17:05:40.866Z,5.57
2022-10-24T17:08:42.458Z,4.47
2022-10-24T17:11:45.701Z,4.10
2022-10-24T17:14:47.475Z,4.80
2022-10-24T17:17:49.182Z,10.50
2022-10-24T17:20:58.247Z,8.13
2022-10-24T17:23:59.790Z,6.77
2022-10-24T17:27:01.317Z,3.50
2022-10-24T17:30:03.376Z,6.57
2022-10-24T17:33:04.915Z,8.23
2022-10-24T17:36:14.971Z,5.60
2022-10-24T17:39:40.376Z,4.67
2022-10-24T17:42:47.974Z,7.97
2022-10-24T17:45:50.524Z,7.43
2022-10-24T17:48:53.477Z,6.30
2022-10-24T17:51:54.884Z,4.03
2022-10-24T17:54:56.349Z,5.03
2022-10-24T17:57:57.777Z,4.83
2022-10-24T18:01:00.091Z,4.07
2022-10-24T18:04:01.682Z,4.00
2022-10-24T18:07:03.078Z,5.00
2022-10-24T18:10:05.045Z,3.53
2022-10-24T18:13:07.484Z,6.10
2022-10-24T18:16:10.835Z,4.37
2022-10-24T18:19:12.274Z,5.60
2022-10-24T18:22:13.668Z,5.93
2022-10-24T18:25:18.771Z,5.40
2022-10-24T18:28:23.293Z,6.30
2022-10-24T18:31:27.858Z,14.00
2022-10-24T18:34:29.234Z,4.73
2022-10-24T18:37:30.698Z,8.17
2022-10-24T18:40:33.412Z,8.03
2022-10-24T18:43:34.926Z,7.23
2022-10-24T18:46:36.630Z,6.10
2022-10-24T18:49:38.482Z,5.37
2022-10-24T18:52:48.759Z,6.77
2022-10-24T18:55:50.845Z,6.17
2022-10-24T18:58:57.154Z,4.90
2022-10-24T19:02:24.407Z,4.80
2022-10-24T19:05:47.801Z,5.10
2022-10-24T19:08:50.865Z,2.83
2022-10-24T19:11:52.942Z,1.93
2022-10-24T19:14:55.052Z,5.33
2022-10-24T19:17:56.859Z,3.87
2022-10-24T19:20:59.082Z,4.00
2022-10-24T19:24:01.712Z,4.50
2022-10-24T19:27:03.143Z,5.13
2022-10-24T19:30:05.740Z,4.13
2022-10-24T19:33:07.182Z,2.33
2022-10-24T19:36:09.776Z,2.30
2022-10-24T19:39:11.310Z,1.90
2022-10-24T19:42:12.703Z,1.53
2022-10-24T19:45:14.184Z,4.77
2022-10-24T19:48:16.118Z,1.93
2022-10-24T19:51:19.115Z,1.17
2022-10-24T19:54:20.542Z,2.43
2022-10-24T19:57:21.956Z,2.67
2022-10-24T20:00:23.443Z,3.33
2022-10-24T20:03:24.855Z,6.37
2022-10-24T20:06:26.425Z,2.33
2022-10-24T20:09:27.847Z,3.90
2022-10-24T20:12:29.305Z,2.37
2022-10-24T20:15:30.688Z,3.07
2022-10-24T20:18:34.440Z,3.97
2022-10-24T20:21:37.443Z,3.07
2022-10-24T20:24:38.915Z,2.50
2022-10-24T20:27:40.518Z,3.10
2022-10-24T20:30:44.715Z,1.40
2022-10-24T20:33:46.233Z,2.83
2022-10-24T20:36:48.059Z,1.83
2022-10-24T20:39:49.433Z,2.87
2022-10-24T20:42:51.709Z,2.37
2022-10-24T20:45:53.235Z,2.43
2022-10-24T20:48:54.699Z,1.53
2022-10-24T20:51:56.093Z,2.33
2022-10-24T20:54:57.551Z,1.50
2022-10-24T20:57:58.943Z,1.80
2022-10-24T21:01:05.426Z,3.33
2022-10-24T21:04:06.935Z,3.37
2022-10-24T21:07:08.330Z,5.13
2022-10-24T21:10:09.700Z,2.73
2022-10-24T21:13:11.091Z,4.10
2022-10-24T21:16:12.690Z,1.93
2022-10-24T21:19:14.137Z,1.70
2022-10-24T21:22:15.526Z,2.47
2022-10-24T21:25:16.913Z,2.63
2022-10-24T21:28:18.277Z,3.17
2022-10-24T21:31:21.594Z,3.50
2022-10-24T21:34:23.996Z,1.73
2022-10-24T21:37:25.402Z,3.77
2022-10-24T21:40:26.791Z,5.40
2022-10-24T21:43:30.231Z,2.17
2022-10-24T21:46:33.168Z,3.47
2022-10-24T21:49:34.570Z,2.57
2022-10-24T21:52:35.962Z,2.40
2022-10-24T21:55:37.359Z,3.10
2022-10-24T21:58:39.105Z,4.37
2022-10-24T22:01:41.623Z,3.10
2022-10-24T22:04:43.122Z,1.80
2022-10-24T22:07:47.471Z,3.00
2022-10-24T22:11:06.301Z,2.40
2022-10-24T22:14:08.224Z,2.67
2022-10-24T22:17:09.584Z,1.53
2022-10-24T22:20:11.217Z,1.23
2022-10-24T22:23:12.671Z,2.00
2022-10-24T22:26:14.237Z,4.43
2022-10-24T22:29:19.330Z,4.80
2022-10-24T22:32:20.984Z,3.37
2022-10-24T22:35:22.975Z,3.10
2022-10-24T22:38:24.623Z,1.90
2022-10-24T22:41:27.936Z,2.23
2022-10-24T22:44:29.545Z,4.17
2022-10-24T22:48:01.802Z,3.50
2022-10-24T22:51:03.487Z,1.63
2022-10-24T22:54:05.253Z,2.13
2022-10-24T22:57:07.493Z,1.83
2022-10-24T23:00:09.793Z,3.60
2022-10-24T23:03:23.142Z,2.80
2022-10-24T23:06:40.964Z,2.40
2022-10-24T23:09:42.390Z,3.03
2022-10-24T23:12:44.297Z,0.90
2022-10-24T23:15:45.776Z,1.27
2022-10-24T23:18:47.639Z,3.77
2022-10-24T23:21:56.466Z,1.97
2022-10-24T23:25:01.505Z,3.33
2022-10-24T23:28:17.605Z,1.10
2022-10-24T23:31:19.288Z,3.70
2022-10-24T23:34:20.984Z,1.83
2022-10-24T23:37:36.141Z,1.43
2022-10-24T23:40:38.169Z,1.23
2022-10-24T23:43:40.033Z,1.43
2022-10-24T23:46:47.796Z,2.33
2022-10-24T23:50:02.222Z,1.70
2022-10-24T23:53:34.355Z,2.87
2022-10-24T23:56:36.029Z,2.87
2022-10-24T23:59:37.440Z,3.80
